Time;durP1;ratioP1;P1;durP2;ratioP2;P2;SDS_P1;SDS_P2;PMS_P1;PMS_P2;Temp;Humidity;BMP_temperature;BMP_pressure;BME280_temperature;BME280_humidity;BME280_pressure;Samples;Min_cycle;Max_cycle;Signal;HPM_P1;HPM_P2
2020/12/22 00:01:18;;;;;;;1.58;1.48;;;;;;;;;;4936894;29;20027;-81
2020/12/22 00:03:44;;;;;;;1.83;1.27;;;11.60;99.90;;;;;;4936573;29;20036;-83
2020/12/22 00:06:09;;;;;;;1.33;1.27;;;11.50;92.10;;;;;;4920922;29;20032;-82
2020/12/22 00:08:35;;;;;;;1.10;1.10;;;;;;;;;;4920720;29;20126;-86
2020/12/22 00:11:01;;;;;;;1.48;1.38;;;11.90;99.90;;;;;;4936661;29;20154;-87
2020/12/22 00:13:27;;;;;;;1.45;1.30;;;11.50;91.90;;;;;;4921091;29;20505;-88
2020/12/22 00:15:52;;;;;;;1.48;1.38;;;11.70;99.90;;;;;;4920602;29;20024;-89
2020/12/22 00:18:18;;;;;;;1.55;1.35;;;11.70;99.80;;;;;;4936505;29;20439;-88
2020/12/22 00:20:44;;;;;;;1.42;1.33;;;11.80;99.90;;;;;;4920423;29;20450;-84
2020/12/22 00:23:10;;;;;;;1.58;1.38;;;;;;;;;;4936779;29;20406;-86
2020/12/22 00:25:44;;;;;;;1.63;1.52;;;11.60;99.90;;;;;;4921012;29;20643;-85
2020/12/22 00:28:11;;;;;;;1.20;1.10;;;11.80;99.60;;;;;;4920107;29;20508;-86
2020/12/22 00:30:37;;;;;;;1.30;1.20;;;;;;;;;;4936103;29;20647;-83
2020/12/22 00:33:03;;;;;;;1.63;1.35;;;11.90;99.50;;;;;;4937340;29;20087;-88
2020/12/22 00:35:29;;;;;;;1.27;1.27;;;11.60;99.30;;;;;;4936664;29;20051;-85
2020/12/22 00:37:55;;;;;;;1.05;1.05;;;;;;;;;;4920733;29;20463;-82
2020/12/22 00:40:20;;;;;;;1.42;1.33;;;11.60;99.90;;;;;;4935747;29;20463;-81
2020/12/22 00:42:46;;;;;;;1.00;1.00;;;11.70;91.20;;;;;;4936096;29;20042;-83
2020/12/22 00:45:12;;;;;;;1.00;1.00;;;;;;;;;;4920300;29;20383;-83
2020/12/22 00:47:38;;;;;;;1.30;1.20;;;12.00;99.90;;;;;;4935973;29;20024;-82
2020/12/22 00:50:03;;;;;;;2.35;0.75;;;12.20;98.40;;;;;;4920382;29;20119;-86
2020/12/22 00:52:29;;;;;;;1.25;1.15;;;12.00;99.90;;;;;;4920005;29;20028;-82
2020/12/22 00:54:54;;;;;;;1.17;1.17;;;11.80;99.90;;;;;;4936102;29;20031;-84
2020/12/22 00:57:20;;;;;;;1.30;1.20;;;12.10;98.50;;;;;;4935981;29;20134;-85
2020/12/22 00:59:45;;;;;;;1.23;0.98;;;12.10;99.90;;;;;;4919716;29;20062;-84
2020/12/22 01:02:11;;;;;;;1.23;1.13;;;11.80;98.00;;;;;;4935581;29;20035;-82
2020/12/22 01:04:37;;;;;;;1.27;1.23;;;;;;;;;;4935809;29;20122;-82
2020/12/22 01:07:03;;;;;;;1.42;1.35;;;;;;;;;;4935730;29;20027;-83
2020/12/22 01:09:29;;;;;;;1.00;1.00;;;12.00;97.30;;;;;;4919946;29;20028;-82
2020/12/22 01:11:54;;;;;;;1.00;1.00;;;11.80;97.50;;;;;;4935302;29;20036;-84
2020/12/22 01:14:20;;;;;;;1.35;1.25;;;11.90;90.00;;;;;;4935515;29;20055;-84
2020/12/22 01:16:46;;;;;;;1.05;1.05;;;;;;;;;;4935398;29;20082;-83
2020/12/22 01:19:12;;;;;;;1.00;0.90;;;12.00;97.90;;;;;;4936747;29;20104;-81
2020/12/22 01:21:37;;;;;;;0.65;0.65;;;11.90;90.20;;;;;;4935322;29;20052;-81
2020/12/22 01:24:06;;;;;;;1.30;1.20;;;;;;;;;;4935103;29;20027;-82
2020/12/22 01:26:32;;;;;;;0.77;0.77;;;12.10;97.40;;;;;;4935281;29;20024;-82
2020/12/22 01:28:57;;;;;;;0.60;0.60;;;12.20;97.30;;;;;;4919435;29;20031;-87
2020/12/22 01:31:27;;;;;;;0.80;0.80;;;12.20;99.90;;;;;;4934970;29;20103;-87
2020/12/22 01:33:53;;;;;;;1.05;1.05;;;12.40;97.10;;;;;;4935439;29;20030;-82
2020/12/22 01:36:19;;;;;;;0.63;0.63;;;;;;;;;;4919294;29;20056;-83
2020/12/22 01:38:45;;;;;;;0.80;0.80;;;;;;;;;;4935993;29;20164;-84
2020/12/22 01:41:11;;;;;;;0.75;0.75;;;;;;;;;;4934896;29;20038;-82
2020/12/22 01:43:37;;;;;;;0.80;0.80;;;12.90;97.30;;;;;;4934935;29;20028;-84
2020/12/22 01:46:04;;;;;;;1.08;1.08;;;12.00;94.60;;;;;;4934767;29;20032;-81
2020/12/22 01:48:29;;;;;;;0.95;0.95;;;;;;;;;;4934998;29;20028;-81
2020/12/22 01:50:55;;;;;;;1.00;0.95;;;12.30;99.90;;;;;;4935932;29;20023;-84
2020/12/22 01:53:21;;;;;;;0.55;0.55;;;12.20;96.80;;;;;;4934235;29;20399;-81
2020/12/22 01:55:46;;;;;;;0.82;0.82;;;12.30;99.90;;;;;;4919046;29;20055;-81
2020/12/22 01:58:12;;;;;;;0.60;0.60;;;;;;;;;;4934733;29;20593;-81
2020/12/22 02:00:38;;;;;;;0.60;0.60;;;12.30;93.20;;;;;;4934623;29;20051;-84
2020/12/22 02:03:06;;;;;;;0.50;0.50;;;12.20;87.20;;;;;;4918844;29;20028;-87
2020/12/22 02:05:38;;;;;;;0.73;0.73;;;12.20;99.90;;;;;;4934718;29;20036;-82
2020/12/22 02:08:04;;;;;;;0.55;0.55;;;12.20;87.50;;;;;;4934866;29;20028;-82
2020/12/22 02:10:30;;;;;;;2.00;0.50;;;12.20;87.20;;;;;;4918797;29;20036;-86
2020/12/22 02:12:56;;;;;;;0.50;0.50;;;12.50;99.90;;;;;;4918762;29;20493;-85
2020/12/22 02:15:21;;;;;;;0.63;0.63;;;12.40;98.40;;;;;;4934567;29;20107;-82
2020/12/22 02:17:47;;;;;;;0.43;0.43;;;12.20;87.80;;;;;;4918498;29;20027;-84
2020/12/22 02:20:13;;;;;;;0.55;0.55;;;;;;;;;;4934143;29;20031;-84
2020/12/22 02:22:39;;;;;;;0.57;0.57;;;12.40;99.90;;;;;;4919097;29;20414;-81
2020/12/22 02:25:14;;;;;;;0.65;0.65;;;12.30;86.60;;;;;;4935135;29;20024;-85
2020/12/22 02:27:40;;;;;;;0.80;0.80;;;;;;;;;;4934594;29;20028;-87
2020/12/22 02:30:06;;;;;;;0.65;0.65;;;12.80;95.70;;;;;;4934669;29;20024;-81
2020/12/22 02:32:31;;;;;;;1.67;0.80;;;12.40;86.60;;;;;;4918864;29;20028;-84
2020/12/22 02:34:57;;;;;;;0.50;0.50;;;;;;;;;;4934649;29;20482;-86
2020/12/22 02:37:23;;;;;;;0.80;0.57;;;12.40;96.40;;;;;;4934101;29;20032;-85
2020/12/22 02:39:49;;;;;;;0.70;0.70;;;12.40;86.70;;;;;;4934168;29;20055;-82
2020/12/22 02:42:15;;;;;;;1.33;1.00;;;12.30;86.80;;;;;;4933958;29;20103;-82
2020/12/22 02:44:40;;;;;;;0.70;0.70;;;12.30;99.90;;;;;;4918508;29;20506;-82
2020/12/22 02:47:13;;;;;;;1.02;1.02;;;12.40;96.30;;;;;;4918367;29;20098;-83
2020/12/22 02:49:40;;;;;;;1.35;0.60;;;12.60;94.00;;;;;;4934360;29;20027;-86
2020/12/22 02:52:05;;;;;;;0.65;0.65;;;12.40;99.90;;;;;;4936433;29;20036;-82
2020/12/22 02:54:32;;;;;;;0.95;0.93;;;12.40;86.10;;;;;;4937466;29;20402;-83
2020/12/22 02:56:58;;;;;;;0.70;0.70;;;;;;;;;;4938095;29;20024;-82
2020/12/22 02:59:23;;;;;;;0.75;0.75;;;12.80;99.10;;;;;;4937703;29;20503;-82
2020/12/22 03:01:49;;;;;;;0.50;0.50;;;12.40;86.10;;;;;;4922171;29;20040;-85
2020/12/22 03:04:14;;;;;;;0.93;0.70;;;12.20;99.90;;;;;;4921891;29;20095;-83
2020/12/22 03:06:40;;;;;;;0.52;0.40;;;12.20;99.90;;;;;;4937677;29;20034;-82
2020/12/22 03:09:07;;;;;;;0.40;0.40;;;12.30;86.20;;;;;;4937751;29;20489;-87
2020/12/22 03:11:33;;;;;;;0.88;0.88;;;;;;;;;;4922030;29;20742;-83
2020/12/22 03:13:58;;;;;;;0.50;0.50;;;12.20;99.90;;;;;;4921985;29;20028;-83
2020/12/22 03:16:24;;;;;;;0.85;0.85;;;12.40;86.40;;;;;;4937434;29;20130;-84
2020/12/22 03:18:50;;;;;;;0.50;0.50;;;;;;;;;;4937801;29;20139;-86
2020/12/22 03:21:16;;;;;;;2.63;0.85;;;12.40;99.90;;;;;;4937228;29;20106;-82
2020/12/22 03:23:42;;;;;;;1.25;0.88;;;12.40;86.90;;;;;;4937653;29;20122;-86
2020/12/22 03:26:08;;;;;;;1.50;1.40;;;12.30;96.60;;;;;;4937188;29;20035;-85
2020/12/22 03:28:33;;;;;;;2.13;0.88;;;12.40;95.90;;;;;;4937316;29;20023;-88
2020/12/22 03:30:59;;;;;;;0.70;0.70;;;12.50;91.00;;;;;;4921544;29;20032;-86
2020/12/22 03:33:25;;;;;;;1.15;0.77;;;12.40;86.70;;;;;;4921375;29;20155;-84
2020/12/22 03:35:51;;;;;;;0.60;0.60;;;;;;;;;;4921550;29;20035;-82
2020/12/22 03:38:16;;;;;;;0.82;0.80;;;12.90;84.90;;;;;;4937233;29;20032;-84
2020/12/22 03:40:42;;;;;;;0.60;0.60;;;12.60;86.10;;;;;;4921468;29;20043;-82
2020/12/22 03:43:08;;;;;;;0.80;0.80;;;;;;;;;;4921157;29;20023;-82
2020/12/22 03:45:33;;;;;;;0.90;0.90;;;12.60;98.50;;;;;;4937235;29;20024;-81
2020/12/22 03:47:59;;;;;;;0.75;0.75;;;12.90;93.90;;;;;;4937036;29;20501;-82
2020/12/22 03:50:25;;;;;;;0.70;0.70;;;12.80;99.90;;;;;;4921268;29;20075;-82
2020/12/22 03:52:50;;;;;;;0.70;0.70;;;12.70;96.00;;;;;;4921057;29;20467;-82
2020/12/22 03:55:16;;;;;;;1.27;0.93;;;;;;;;;;4921039;29;20434;-85
2020/12/22 03:57:42;;;;;;;0.65;0.63;;;;;;;;;;4920693;29;20470;-84
2020/12/22 04:00:08;;;;;;;1.52;1.00;;;12.70;99.90;;;;;;4920784;29;20023;-82
2020/12/22 04:02:34;;;;;;;1.52;0.60;;;12.80;96.00;;;;;;4919920;29;20039;-85
2020/12/22 04:05:00;;;;;;;0.75;0.75;;;;;;;;;;4936705;29;20059;-86
2020/12/22 04:07:26;;;;;;;0.80;0.80;;;12.50;96.20;;;;;;4920733;29;20557;-84
2020/12/22 04:09:51;;;;;;;1.15;0.77;;;12.60;86.40;;;;;;4936598;29;20031;-82
2020/12/22 04:12:17;;;;;;;0.85;0.73;;;;;;;;;;4937001;29;20020;-82
2020/12/22 04:14:43;;;;;;;1.25;1.13;;;12.60;95.20;;;;;;4936807;29;20363;-88
2020/12/22 04:17:09;;;;;;;1.10;1.10;;;12.60;86.30;;;;;;4936719;29;20031;-82
2020/12/22 04:19:35;;;;;;;1.00;1.00;;;;;;;;;;4936694;29;20063;-88
2020/12/22 04:22:01;;;;;;;1.40;0.77;;;12.70;99.90;;;;;;4936180;29;20058;-82
2020/12/22 04:24:26;;;;;;;0.63;0.63;;;12.50;86.10;;;;;;4936602;29;20463;-82
2020/12/22 04:26:52;;;;;;;1.00;1.00;;;12.70;99.90;;;;;;4937509;29;20038;-82
2020/12/22 04:29:18;;;;;;;1.10;1.10;;;12.60;95.60;;;;;;4936185;29;20024;-82
2020/12/22 04:31:43;;;;;;;0.98;0.90;;;12.60;87.30;;;;;;4933705;29;20039;-83
2020/12/22 04:34:09;;;;;;;0.70;0.70;;;;;;;;;;4920069;29;20110;-85
2020/12/22 04:36:35;;;;;;;0.95;0.95;;;12.60;95.60;;;;;;4919609;29;20046;-83
2020/12/22 04:39:01;;;;;;;0.82;0.77;;;;;;;;;;4919287;29;20031;-83
2020/12/22 04:41:26;;;;;;;1.85;0.95;;;12.60;99.30;;;;;;4919328;29;20028;-83
2020/12/22 04:43:52;;;;;;;0.73;0.73;;;;;;;;;;4919054;29;20103;-85
2020/12/22 04:46:20;;;;;;;1.05;1.00;;;12.70;99.90;;;;;;4935476;29;20390;-82
2020/12/22 04:48:58;;;;;;;0.80;0.80;;;12.50;86.70;;;;;;4903920;29;20028;-87
2020/12/22 04:51:24;;;;;;;1.48;0.95;;;12.50;86.80;;;;;;4904138;29;20035;-82
2020/12/22 04:53:50;;;;;;;1.05;0.80;;;;;;;;;;4903305;29;20066;-87
2020/12/22 04:56:16;;;;;;;0.70;0.70;;;12.40;99.90;;;;;;4919129;29;20059;-84
2020/12/22 04:58:42;;;;;;;0.85;0.85;;;12.70;99.90;;;;;;4902877;29;20079;-83
2020/12/22 05:01:08;;;;;;;0.98;0.98;;;;;;;;;;4919269;29;20086;-84
2020/12/22 05:03:34;;;;;;;1.35;0.80;;;;;;;;;;4918723;29;20091;-83
2020/12/22 05:06:00;;;;;;;1.00;0.90;;;12.70;95.40;;;;;;4934380;29;20063;-83
2020/12/22 05:08:25;;;;;;;0.75;0.75;;;12.60;86.70;;;;;;4903088;29;20060;-84
2020/12/22 05:10:51;;;;;;;0.52;0.52;;;12.60;86.60;;;;;;4902775;29;20474;-86
2020/12/22 05:13:17;;;;;;;0.98;0.98;;;;;;;;;;4903235;29;20031;-83
2020/12/22 05:15:52;;;;;;;1.02;0.90;;;13.00;99.90;;;;;;4933757;29;20055;-84
2020/12/22 05:18:25;;;;;;;0.93;0.93;;;12.60;86.00;;;;;;4919687;29;20059;-85
2020/12/22 05:20:51;;;;;;;1.98;1.00;;;;;;;;;;4902633;29;20102;-82
2020/12/22 05:23:17;;;;;;;0.90;0.90;;;12.70;99.90;;;;;;4934713;29;20024;-85
2020/12/22 05:25:44;;;;;;;0.80;0.80;;;12.50;86.30;;;;;;4918486;29;20039;-82
2020/12/22 05:28:10;;;;;;;0.90;0.70;;;;;;;;;;4918610;29;20102;-84
2020/12/22 05:30:43;;;;;;;0.82;0.82;;;13.30;99.90;;;;;;4935697;29;20057;-80
2020/12/22 05:33:09;;;;;;;0.57;0.57;;;12.90;99.90;;;;;;4906179;29;20043;-81
2020/12/22 05:35:35;;;;;;;0.65;0.65;;;12.70;86.30;;;;;;4918897;29;20032;-81
2020/12/22 05:38:02;;;;;;;0.52;0.52;;;;;;;;;;4918414;29;20035;-81
2020/12/22 05:40:28;;;;;;;5.70;0.65;;;;;;;;;;4918580;29;20086;-84
2020/12/22 05:42:53;;;;;;;0.50;0.50;;;12.80;84.80;;;;;;4935246;29;20455;-83
2020/12/22 05:45:19;;;;;;;1.08;0.98;;;12.80;86.80;;;;;;4902691;29;20036;-82
2020/12/22 05:47:45;;;;;;;0.60;0.60;;;;;;;;;;4934136;29;20036;-84
2020/12/22 05:50:11;;;;;;;0.60;0.60;;;;;;;;;;4918538;29;20386;-83
2020/12/22 05:52:37;;;;;;;0.50;0.50;;;12.80;95.50;;;;;;4933357;29;20020;-79
2020/12/22 05:55:02;;;;;;;0.70;0.70;;;12.70;86.40;;;;;;4917217;29;20040;-82
2020/12/22 05:57:32;;;;;;;1.25;0.95;;;12.70;86.20;;;;;;4933169;29;20121;-79
2020/12/22 05:59:58;;;;;;;0.47;0.47;;;12.80;86.80;;;;;;4913286;29;20074;-81
2020/12/22 06:02:30;;;;;;;0.52;0.52;;;12.80;98.80;;;;;;4933585;29;20494;-83
2020/12/22 06:04:57;;;;;;;0.98;0.82;;;12.60;95.60;;;;;;4918436;29;20043;-79
2020/12/22 06:07:23;;;;;;;0.60;0.60;;;12.80;85.30;;;;;;4933231;29;20386;-85
2020/12/22 06:09:49;;;;;;;0.98;0.98;;;;;;;;;;4934543;29;20024;-81
2020/12/22 06:12:15;;;;;;;0.40;0.40;;;12.70;95.70;;;;;;4934574;29;20051;-84
2020/12/22 06:14:45;;;;;;;0.70;0.70;;;12.80;85.70;;;;;;4934491;29;20447;-84
2020/12/22 06:17:12;;;;;;;0.77;0.77;;;12.80;85.40;;;;;;4918502;29;20504;-81
2020/12/22 06:19:38;;;;;;;1.38;0.80;;;;;;;;;;4934350;29;20040;-85
2020/12/22 06:22:03;;;;;;;0.70;0.70;;;12.80;98.00;;;;;;4917686;29;20039;-83
2020/12/22 06:24:30;;;;;;;0.75;0.70;;;13.20;99.90;;;;;;4934307;29;20079;-81
2020/12/22 06:27:06;;;;;;;0.60;0.60;;;12.90;84.50;;;;;;4934200;29;20027;-84
2020/12/22 06:29:32;;;;;;;0.45;0.45;;;;;;;;;;4934965;29;20035;-84
2020/12/22 06:32:22;;;;;;;0.88;0.88;;;12.90;93.10;;;;;;4933907;29;20090;-81
2020/12/22 06:34:48;;;;;;;0.50;0.50;;;;;;;;;;4943895;28;20044;-82
2020/12/22 06:37:13;;;;;;;0.50;0.50;;;12.90;82.70;;;;;;4934040;29;20083;-84
2020/12/22 06:39:40;;;;;;;1.10;0.75;;;13.00;83.90;;;;;;4950010;28;20493;-81
2020/12/22 06:42:06;;;;;;;0.57;0.57;;;;;;;;;;4933277;29;20040;-84
2020/12/22 06:44:32;;;;;;;0.70;0.70;;;;;;;;;;4915736;29;20505;-81
2020/12/22 06:46:58;;;;;;;0.57;0.57;;;;;;;;;;4932472;29;20028;-82
2020/12/22 06:49:49;;;;;;;0.70;0.70;;;12.90;91.30;;;;;;4933709;29;20063;-84
2020/12/22 06:52:35;;;;;;;0.73;0.73;;;12.80;94.60;;;;;;4947284;29;20479;-81
2020/12/22 06:55:02;;;;;;;1.02;0.98;;;13.00;92.80;;;;;;4932287;29;20039;-82
2020/12/22 06:57:44;;;;;;;0.70;0.70;;;;;;;;;;4917375;29;20062;-79
2020/12/22 07:00:21;;;;;;;;;;;13.10;91.10;;;;;;4917348;29;20043;-79
2020/12/22 07:02:47;;;;;;;0.85;0.85;;;13.00;82.80;;;;;;4916303;29;19939;-82
2020/12/22 07:05:15;;;;;;;0.68;0.68;;;13.10;82.70;;;;;;4933195;29;20073;-80
2020/12/22 07:07:57;;;;;;;0.80;0.80;;;13.20;99.90;;;;;;4917319;29;20055;-81
2020/12/22 07:10:23;;;;;;;0.68;0.68;;;13.20;92.20;;;;;;4916418;29;20035;-79
2020/12/22 07:12:50;;;;;;;1.48;0.68;;;13.10;82.50;;;;;;4932245;29;20047;-87
2020/12/22 07:15:18;;;;;;;0.95;0.95;;;13.60;92.50;;;;;;4916476;29;20497;-82
2020/12/22 07:17:44;;;;;;;0.77;0.77;;;;;;;;;;4930717;29;20050;-83
2020/12/22 07:20:09;;;;;;;0.77;0.77;;;13.30;99.90;;;;;;4931165;29;20031;-82
2020/12/22 07:22:35;;;;;;;0.50;0.50;;;13.30;93.60;;;;;;4915211;29;20048;-81
2020/12/22 07:25:02;;;;;;;1.45;0.77;;;13.10;83.10;;;;;;4916007;29;20071;-82
2020/12/22 07:27:27;;;;;;;1.02;0.90;;;13.20;83.10;;;;;;4899960;29;20038;-81
2020/12/22 07:29:53;;;;;;;0.60;0.60;;;;;;;;;;4931716;29;20028;-83
2020/12/22 07:32:19;;;;;;;0.52;0.52;;;13.50;94.30;;;;;;4931075;29;20046;-80
2020/12/22 07:34:44;;;;;;;0.77;0.77;;;13.10;83.50;;;;;;4916340;29;20031;-81
2020/12/22 07:37:11;;;;;;;1.38;0.93;;;13.20;82.70;;;;;;4933309;29;20032;-80
2020/12/22 07:39:37;;;;;;;0.80;0.80;;;13.00;98.50;;;;;;4936008;29;20024;-80
2020/12/22 07:42:16;;;;;;;1.20;1.00;;;13.10;82.70;;;;;;4935168;29;20043;-80
2020/12/22 07:44:43;;;;;;;1.13;1.13;;;;;;;;;;4946339;29;20475;-85
2020/12/22 07:47:09;;;;;;;1.25;1.23;;;13.00;99.80;;;;;;4936432;29;20023;-85
2020/12/22 07:49:35;;;;;;;1.00;0.82;;;12.10;81.40;;;;;;4938645;28;20036;-83
2020/12/22 07:52:01;;;;;;;1.00;0.90;;;13.30;82.10;;;;;;4903393;29;20046;-82
2020/12/22 07:54:27;;;;;;;0.60;0.60;;;;;;;;;;4916668;29;20379;-80
2020/12/22 07:56:53;;;;;;;0.80;0.80;;;;;;;;;;4932448;29;20024;-80
2020/12/22 08:00:02;;;;;;;0.90;0.90;;;13.30;79.80;;;;;;4937817;29;20055;-79
2020/12/22 08:02:27;;;;;;;0.63;0.63;;;13.60;99.20;;;;;;4931491;29;20083;-85
2020/12/22 08:04:54;;;;;;;1.05;0.88;;;13.40;80.80;;;;;;4934837;29;20474;-81
2020/12/22 08:07:20;;;;;;;5.28;1.50;;;;;;;;;;4919361;29;20528;-78
2020/12/22 08:09:46;;;;;;;1.73;0.95;;;;;;;;;;4935373;29;20391;-82
2020/12/22 08:12:11;;;;;;;0.73;0.73;;;13.70;94.90;;;;;;4919900;29;20027;-83
2020/12/22 08:14:41;;;;;;;1.02;0.93;;;13.40;95.70;;;;;;4916588;29;20066;-82
2020/12/22 08:17:18;;;;;;;2.17;1.30;;;13.60;80.10;;;;;;4919304;29;20038;-81
2020/12/22 08:19:44;;;;;;;0.52;0.52;;;13.80;98.40;;;;;;4933279;29;20071;-81
2020/12/22 08:22:13;;;;;;;0.80;0.80;;;13.20;97.60;;;;;;4902853;29;20074;-79
2020/12/22 08:24:38;;;;;;;0.65;0.65;;;13.60;79.80;;;;;;4934688;29;20423;-86
2020/12/22 08:27:04;;;;;;;0.80;0.80;;;13.60;80.00;;;;;;4934263;29;20036;-86
2020/12/22 08:29:30;;;;;;;0.70;0.70;;;13.30;97.50;;;;;;4919243;29;20039;-82
2020/12/22 08:32:00;;;;;;;0.65;0.65;;;13.60;80.00;;;;;;4918820;29;20039;-81
2020/12/22 08:34:26;;;;;;;0.50;0.50;;;13.60;80.10;;;;;;4918512;29;20027;-83
2020/12/22 08:36:52;;;;;;;1.40;1.00;;;13.20;97.90;;;;;;4934427;29;20043;-82
2020/12/22 08:39:21;;;;;;;1.10;1.10;;;13.50;97.80;;;;;;4935295;29;20518;-83
2020/12/22 08:41:48;;;;;;;2.30;1.58;;;13.50;91.60;;;;;;4934812;29;20047;-82
2020/12/22 08:44:14;;;;;;;0.88;0.88;;;13.70;80.50;;;;;;4922081;29;20036;-82
2020/12/22 08:46:40;;;;;;;1.30;1.02;;;;;;;;;;4903071;29;20118;-81
2020/12/22 08:49:13;;;;;;;0.90;0.90;;;13.50;88.50;;;;;;4933656;29;20448;-83
2020/12/22 08:51:39;;;;;;;0.80;0.80;;;13.80;91.00;;;;;;4934505;29;20023;-85
2020/12/22 08:54:05;;;;;;;1.10;1.00;;;;;;;;;;4903160;29;20035;-83
2020/12/22 08:56:31;;;;;;;0.95;0.95;;;;;;;;;;4934592;29;20047;-81
2020/12/22 08:58:58;;;;;;;0.68;0.68;;;13.90;92.20;;;;;;4934494;29;20056;-81
2020/12/22 09:01:25;;;;;;;0.65;0.65;;;13.60;98.10;;;;;;4918437;29;20032;-84
2020/12/22 09:03:53;;;;;;;1.15;1.15;;;13.90;90.30;;;;;;4903598;29;20508;-83
2020/12/22 09:06:30;;;;;;;0.80;0.80;;;14.20;98.00;;;;;;4919191;29;20411;-82
2020/12/22 09:08:59;;;;;;;0.57;0.57;;;13.80;81.10;;;;;;4918976;29;20033;-80
2020/12/22 09:11:24;;;;;;;0.47;0.47;;;13.80;81.10;;;;;;4918608;29;20035;-83
2020/12/22 09:14:19;;;;;;;0.90;0.60;;;13.60;97.70;;;;;;4934242;29;20474;-84
2020/12/22 09:16:49;;;;;;;1.80;0.73;;;13.90;81.30;;;;;;4925340;29;20040;-84
2020/12/22 09:19:19;;;;;;;1.63;1.08;;;14.10;80.90;;;;;;4934525;29;20027;-83
2020/12/22 09:21:45;;;;;;;0.60;0.60;;;13.90;87.30;;;;;;4902978;29;20042;-84
2020/12/22 09:24:20;;;;;;;0.77;0.77;;;14.30;79.90;;;;;;4918292;29;20389;-85
2020/12/22 09:26:53;;;;;;;0.63;0.63;;;14.50;96.80;;;;;;4932758;29;20118;-86
2020/12/22 09:29:19;;;;;;;0.65;0.65;;;14.50;96.60;;;;;;4902429;29;20386;-87
2020/12/22 09:31:45;;;;;;;0.88;0.88;;;14.60;78.90;;;;;;4917437;29;20031;-84
2020/12/22 09:34:10;;;;;;;1.92;0.80;;;14.70;79.80;;;;;;4902554;29;20035;-83
2020/12/22 09:36:36;;;;;;;1.65;0.73;;;;;;;;;;4918462;29;20150;-85
2020/12/22 09:39:02;;;;;;;0.70;0.70;;;15.30;88.50;;;;;;4918474;29;20030;-83
2020/12/22 09:41:28;;;;;;;0.70;0.70;;;15.20;76.50;;;;;;4917831;29;20047;-84
2020/12/22 09:43:54;;;;;;;1.60;1.48;;;15.40;75.80;;;;;;4902527;29;20028;-84
2020/12/22 09:46:20;;;;;;;1.17;1.17;;;15.70;84.80;;;;;;4901835;29;20451;-83
2020/12/22 09:48:45;;;;;;;0.93;0.93;;;15.70;75.30;;;;;;4902393;29;20028;-84
2020/12/22 09:51:15;;;;;;;1.20;0.60;;;15.60;74.80;;;;;;4901258;29;20083;-84
2020/12/22 09:53:40;;;;;;;0.80;0.80;;;15.70;83.40;;;;;;4918031;29;20036;-87
2020/12/22 09:56:06;;;;;;;0.90;0.90;;;15.40;75.60;;;;;;4917811;29;20149;-82
2020/12/22 09:58:31;;;;;;;0.93;0.93;;;15.70;74.80;;;;;;4901696;29;20059;-83
2020/12/22 10:00:58;;;;;;;0.98;0.85;;;;;;;;;;4901191;29;20078;-83
2020/12/22 10:03:23;;;;;;;1.33;0.98;;;16.30;74.50;;;;;;4917008;29;20067;-84
2020/12/22 10:05:49;;;;;;;0.90;0.90;;;16.60;70.70;;;;;;4901409;29;20427;-83
2020/12/22 10:08:15;;;;;;;1.42;1.33;;;17.00;70.90;;;;;;4917230;29;20031;-83
2020/12/22 10:10:40;;;;;;;0.90;0.90;;;17.00;75.20;;;;;;4901938;29;20110;-83
2020/12/22 10:13:06;;;;;;;0.95;0.95;;;17.30;68.50;;;;;;4901697;29;20198;-86
2020/12/22 10:15:31;;;;;;;1.95;0.82;;;17.20;68.60;;;;;;4902230;29;20038;-84
2020/12/22 10:17:57;;;;;;;1.00;1.00;;;17.00;73.80;;;;;;4917753;29;20031;-83
2020/12/22 10:20:22;;;;;;;1.13;1.10;;;17.00;69.80;;;;;;4917723;29;20106;-84
2020/12/22 10:22:48;;;;;;;0.50;0.50;;;16.50;70.60;;;;;;4901916;29;20024;-85
2020/12/22 10:25:14;;;;;;;0.95;0.95;;;16.20;72.30;;;;;;4901901;29;20042;-85
2020/12/22 10:27:39;;;;;;;0.75;0.75;;;15.80;79.40;;;;;;4917744;29;20114;-84
2020/12/22 10:30:06;;;;;;;1.17;1.08;;;15.70;74.60;;;;;;4917550;29;20045;-83
2020/12/22 10:32:33;;;;;;;0.68;0.68;;;15.50;74.20;;;;;;4902025;29;20031;-84
2020/12/22 10:35:00;;;;;;;0.82;0.82;;;15.70;79.10;;;;;;4932345;29;20482;-85
2020/12/22 10:37:26;;;;;;;0.98;0.98;;;16.00;74.70;;;;;;4918390;29;20036;-86
2020/12/22 10:39:52;;;;;;;0.70;0.55;;;16.50;72.20;;;;;;4902234;29;20074;-84
2020/12/22 10:42:18;;;;;;;0.63;0.63;;;17.20;77.60;;;;;;4931759;29;20075;-83
2020/12/22 10:44:44;;;;;;;1.00;1.00;;;17.30;69.50;;;;;;4916480;29;20415;-84
2020/12/22 10:47:10;;;;;;;0.88;0.88;;;17.60;69.80;;;;;;4933104;29;20372;-83
2020/12/22 10:49:36;;;;;;;1.35;1.25;;;18.40;72.50;;;;;;4917540;29;20032;-85
2020/12/22 10:52:02;;;;;;;0.80;0.80;;;17.70;67.60;;;;;;4914285;29;20083;-84
2020/12/22 10:54:28;;;;;;;1.02;0.95;;;;;;;;;;4933303;29;20526;-87
2020/12/22 10:56:56;;;;;;;0.80;0.80;;;16.80;72.80;;;;;;4917507;29;20060;-85
2020/12/22 10:59:22;;;;;;;1.25;1.15;;;16.50;72.20;;;;;;4933752;29;20048;-83
2020/12/22 11:01:50;;;;;;;0.80;0.80;;;;;;;;;;4918269;29;20079;-82
2020/12/22 11:04:18;;;;;;;1.58;1.10;;;16.00;78.70;;;;;;4918486;29;20027;-86
2020/12/22 11:09:12;;;;;;;0.77;0.77;;;;;;;;;;4934192;29;20031;-85
2020/12/22 11:11:46;;;;;;;1.30;1.27;;;16.00;93.40;;;;;;4934222;29;20411;-86
2020/12/22 11:14:13;;;;;;;1.05;0.98;;;16.10;74.20;;;;;;4923512;29;20067;-84
2020/12/22 11:16:39;;;;;;;1.08;0.98;;;;;;;;;;4936936;29;20385;-86
2020/12/22 11:19:05;;;;;;;0.70;0.70;;;15.80;79.60;;;;;;4937517;29;20078;-85
2020/12/22 11:21:30;;;;;;;0.70;0.70;;;15.80;74.40;;;;;;4921882;29;20490;-82
2020/12/22 11:23:56;;;;;;;1.33;0.88;;;15.70;75.50;;;;;;4921615;29;20390;-84
2020/12/22 11:26:23;;;;;;;1.00;1.00;;;15.60;95.20;;;;;;4937079;29;20383;-86
2020/12/22 11:28:48;;;;;;;1.15;1.15;;;15.80;95.20;;;;;;4937606;29;20031;-86
2020/12/22 11:31:14;;;;;;;0.80;0.80;;;15.40;76.10;;;;;;4937169;29;20036;-84
2020/12/22 11:33:40;;;;;;;0.85;0.85;;;15.30;96.00;;;;;;4940880;29;20027;-84
2020/12/22 11:36:08;;;;;;;6.60;3.05;;;15.30;96.70;;;;;;4908870;29;20040;-83
2020/12/22 11:38:34;;;;;;;3.80;2.30;;;;;;;;;;4921683;29;20371;-91
2020/12/22 11:41:00;;;;;;;8.18;2.63;;;;;;;;;;4937475;29;20039;-83
2020/12/22 11:43:26;;;;;;;6.22;1.67;;;;;;;;;;4918302;29;20029;-88
2020/12/22 11:45:52;;;;;;;0.85;0.82;;;;;;;;;;4918536;29;20480;-86
2020/12/22 11:48:18;;;;;;;7.43;2.75;;;;;;;;;;4918388;29;20035;-88
2020/12/22 11:50:44;;;;;;;7.70;1.73;;;;;;;;;;4918063;29;20087;-88
2020/12/22 11:53:10;;;;;;;0.77;0.77;;;15.70;88.20;;;;;;4923626;29;20232;-83
2020/12/22 11:55:36;;;;;;;0.90;0.90;;;;;;;;;;4937475;29;20031;-86
2020/12/22 11:58:02;;;;;;;1.65;0.80;;;14.90;89.00;;;;;;4937508;29;20082;-87
2020/12/22 12:00:27;;;;;;;0.80;0.80;;;15.10;76.90;;;;;;4924010;29;20031;-87
2020/12/22 12:02:53;;;;;;;0.90;0.90;;;;;;;;;;4921142;29;20031;-86
2020/12/22 12:05:19;;;;;;;0.65;0.65;;;;;;;;;;4920529;29;20028;-88
2020/12/22 12:07:45;;;;;;;1.90;1.52;;;;;;;;;;4921460;29;20036;-89
2020/12/22 12:10:11;;;;;;;2.42;1.25;;;;;;;;;;4921207;29;20075;-86
2020/12/22 12:12:37;;;;;;;0.95;0.95;;;15.00;82.90;;;;;;4920759;29;20024;-88
2020/12/22 12:15:03;;;;;;;0.93;0.93;;;15.00;78.00;;;;;;4936568;29;20027;-83
2020/12/22 12:17:28;;;;;;;0.95;0.95;;;14.70;94.90;;;;;;4920731;29;20039;-86
2020/12/22 12:19:54;;;;;;;1.30;1.20;;;15.20;87.90;;;;;;4920502;29;20459;-80
2020/12/22 12:22:20;;;;;;;0.70;0.70;;;14.90;78.80;;;;;;4935428;29;20040;-81
2020/12/22 12:24:46;;;;;;;0.52;0.52;;;;;;;;;;4935353;29;20035;-80
2020/12/22 12:27:11;;;;;;;0.70;0.70;;;14.60;96.30;;;;;;4936544;29;20371;-82
2020/12/22 12:29:37;;;;;;;1.00;1.00;;;14.70;79.20;;;;;;4935916;29;20039;-81
2020/12/22 12:32:02;;;;;;;2.25;1.20;;;14.70;79.90;;;;;;4920363;29;20028;-81
2020/12/22 12:34:28;;;;;;;1.63;1.52;;;14.70;79.70;;;;;;4936243;29;20036;-86
2020/12/22 12:36:53;;;;;;;2.58;1.00;;;14.80;96.80;;;;;;4920436;29;20115;-84
2020/12/22 12:39:20;;;;;;;0.75;0.75;;;14.60;79.90;;;;;;4935488;29;20028;-84
2020/12/22 12:41:49;;;;;;;1.05;1.05;;;14.80;97.00;;;;;;4936343;29;20044;-85
2020/12/22 12:44:15;;;;;;;0.90;0.90;;;14.70;89.80;;;;;;4936139;29;20024;-85
2020/12/22 12:46:41;;;;;;;1.15;1.13;;;14.60;81.10;;;;;;4934761;28;20035;-84
2020/12/22 12:49:07;;;;;;;1.02;1.02;;;14.90;97.10;;;;;;4905129;29;20028;-82
2020/12/22 12:51:34;;;;;;;0.98;0.98;;;14.40;89.60;;;;;;4934667;29;20430;-83
2020/12/22 12:54:00;;;;;;;0.80;0.80;;;14.50;81.40;;;;;;4934148;29;20030;-82
2020/12/22 12:56:26;;;;;;;1.50;1.35;;;14.40;97.70;;;;;;4919038;29;20059;-81
2020/12/22 12:58:52;;;;;;;2.40;1.10;;;14.40;82.30;;;;;;4918755;29;20091;-81
2020/12/22 13:01:17;;;;;;;1.33;1.27;;;14.40;82.40;;;;;;4934659;29;20040;-85
2020/12/22 13:03:43;;;;;;;1.50;1.40;;;;;;;;;;4902736;29;20036;-81
2020/12/22 13:06:12;;;;;;;0.95;0.95;;;14.90;91.80;;;;;;4943840;29;20023;-85
2020/12/22 13:08:38;;;;;;;0.90;0.90;;;;;;;;;;4933787;29;20028;-83
2020/12/22 13:11:04;;;;;;;1.02;1.02;;;14.00;97.60;;;;;;4918349;29;20035;-86
2020/12/22 13:13:30;;;;;;;1.50;1.30;;;14.40;82.30;;;;;;4918052;29;20031;-82